Buoy 51627

sailwx.info

Track history (hours):
 
Tides and Currents Weather Stations Pressure Air Temp Water Temp Dewpoint Dewpoint Depression Visibility Wind Speed Wind Dir Waves Ship Positions

Drifting buoy 51627

Last reported at 2015-Aug-03 16:00 UTC. Time now 2015-Aug-03 17:10 UTC.
Position N 08°42' W 160°04'.

Water temperature 29.2 ° C

Date/timePositionNaut miles runAvg speedWind from/ knotsBaromVisibWave heightAir tempDewpointWater temp
2015-Aug-03 16:00N 08°42' W 160°04'0 0.3 29.2
2015-Aug-03 15:00N 08°42' W 160°04'1 0.6 29.2
2015-Aug-03 14:00N 08°43' W 160°04'0 0.0 29.2
2015-Aug-03 12:00N 08°43' W 160°04'1 0.2 29.2
2015-Aug-03 09:00N 08°43' W 160°04'0 0.3 29.3
2015-Aug-03 08:00N 08°42' W 160°05'1 1.0 29.4
2015-Aug-03 07:00N 08°43' W 160°04'0 0.0 29.4
2015-Aug-03 06:00N 08°43' W 160°04'0 0.0 29.5
2015-Aug-03 05:00N 08°43' W 160°04'2 1.7 29.6
2015-Aug-03 04:00N 08°45' W 160°04'3 0.8 29.6
2015-Aug-03 00:00N 08°48' W 160°05'2 1.8 29.7
2015-Aug-02 23:00N 08°47' W 160°04'3 1.3 29.6
2015-Aug-02 21:00N 08°48' W 160°06'0 0.4 29.5
2015-Aug-02 20:00N 08°48' W 160°06'1 0.2 29.3
2015-Aug-02 17:00N 08°48' W 160°07'0 0.3 29.2
2015-Aug-02 16:00N 08°48' W 160°07'0 0.1 29.2
2015-Aug-02 15:00N 08°48' W 160°07'1 1.0 29.2
2015-Aug-02 14:00N 08°49' W 160°08'0 0.4 29.2
2015-Aug-02 13:00N 08°49' W 160°08'3 0.5 29.3
2015-Aug-02 08:00N 08°50' W 160°11'1 1.0 29.3
2015-Aug-02 07:00N 08°50' W 160°12'0 0.0 29.4
2015-Aug-02 06:00N 08°50' W 160°12'1 0.6 29.4
2015-Aug-02 05:00N 08°50' W 160°11'1 0.5 29.4
2015-Aug-02 04:00N 08°50' W 160°11'0 0.4 29.5
2015-Aug-02 03:00N 08°51' W 160°11'1 1.0 29.6
2015-Aug-02 02:00N 08°52' W 160°11'0 0.0 29.6
2015-Aug-02 01:00N 08°52' W 160°11'2 1.8 29.9
2015-Aug-02 00:00N 08°53' W 160°12'0 0.0 29.8
2015-Aug-01 23:00N 08°53' W 160°12'0 0.1 29.6
2015-Aug-01 20:00N 08°52' W 160°13'0 0.2 29.3
2015-Aug-01 19:00N 08°52' W 160°13'2 0.9 29.2
2015-Aug-01 17:00N 08°52' W 160°15'0 0.2 29.2
2015-Aug-01 15:00N 08°52' W 160°14'1 0.3 29.2
2015-Aug-01 13:00N 08°52' W 160°15'0 0.0 29.2
2015-Aug-01 12:00N 08°52' W 160°15'2 0.4 29.2
2015-Aug-01 08:00N 08°52' W 160°17'1 0.5 29.0
2015-Aug-01 06:00N 08°52' W 160°18'3 0.2 29.4
2015-Jul-31 16:00N 08°54' W 160°20'1 0.1 29.1
2015-Jul-31 08:00N 08°54' W 160°21'0 0.2 29.2
2015-Jul-31 07:00N 08°53' W 160°21'0 0.1 29.2
2015-Jul-31 05:00N 08°54' W 160°21'1 0.4 29.2
2015-Jul-31 03:00N 08°54' W 160°21'0 0.0 29.3
2015-Jul-30 20:00N 08°54' W 160°22'1 0.2 29.1
2015-Jul-30 16:00N 08°55' W 160°22'1 0.9 29.1
2015-Jul-30 15:00N 08°55' W 160°23'0 0.0 29.1
2015-Jul-30 14:00N 08°55' W 160°23'1 0.3 29.1
2015-Jul-30 11:00N 08°54' W 160°24'2 0.8 29.2
2015-Jul-30 09:00N 08°53' W 160°24'1 0.6 29.2
2015-Jul-30 08:00N 08°52' W 160°24'1 0.2 29.3
2015-Jul-30 04:00N 08°51' W 160°24'0 0.2 29.4
2015-Jul-30 01:00N 08°51' W 160°24'1 0.1 29.4
2015-Jul-29 17:00N 08°50' W 160°25'0 0.0 29.2
2015-Jul-29 12:00N 08°51' W 160°25'0 0.0 28.8
2015-Jul-29 11:00N 08°51' W 160°25'1 0.2 29.1
2015-Jul-29 07:00N 08°50' W 160°25'0 0.4 29.3
2015-Jul-29 06:00N 08°50' W 160°24'0 0.3 29.4
2015-Jul-29 05:00N 08°50' W 160°24'1 0.3 29.4
2015-Jul-29 03:00N 08°50' W 160°24'1 1.0 29.5
2015-Jul-29 02:00N 08°51' W 160°24'2 2.3 29.6
2015-Jul-29 01:00N 08°53' W 160°24'3 0.3 29.5
2015-Jul-28 15:00N 08°56' W 160°25'0 0.5 29.1
2015-Jul-28 14:00N 08°56' W 160°26'1 0.5 29.1
2015-Jul-28 13:00N 08°56' W 160°26'2 0.4 29.1
2015-Jul-28 09:00N 08°57' W 160°28'0 0.4 29.2
2015-Jul-28 08:00N 08°57' W 160°28'2 1.9 29.2
2015-Jul-28 07:00N 08°56' W 160°30'1 0.1 29.3
2015-Jul-27 21:00N 08°56' W 160°31'1 0.1 29.1
2015-Jul-27 15:00N 08°55' W 160°31'0 0.2 29.0
2015-Jul-27 14:00N 08°55' W 160°31'3 0.3 29.0
2015-Jul-27 04:00N 08°53' W 160°31'1 0.2 29.1
2015-Jul-26 23:00N 08°52' W 160°30'0 0.0 29.1
2015-Jul-26 21:00N 08°52' W 160°30'1 0.1 29.1
2015-Jul-26 16:00N 08°53' W 160°29'0 0.0 29.1
2015-Jul-26 15:00N 08°53' W 160°29'0 0.1 29.1
2015-Jul-26 12:00N 08°52' W 160°29'0 0.0 29.1
2015-Jul-26 11:00N 08°52' W 160°29'3 0.7 29.1
2015-Jul-26 07:00N 08°50' W 160°29'1 0.4 29.2
2015-Jul-26 05:00N 08°49' W 160°28'1 0.9 29.2
2015-Jul-26 04:00N 08°48' W 160°28'0 0.0 29.2
2015-Jul-26 03:00N 08°48' W 160°28'1 0.7 29.3
2015-Jul-26 02:00N 08°48' W 160°28'1 0.5 29.3
2015-Jul-26 01:00N 08°48' W 160°27'0 0.0 29.3
2015-Jul-26 00:00N 08°48' W 160°27'2 1.6 29.2
2015-Jul-25 23:00N 08°47' W 160°26'0 0.1 29.2
2015-Jul-25 20:00N 08°47' W 160°26'4 0.4 29.1
2015-Jul-25 09:00N 08°47' W 160°22'1 0.9 29.2
2015-Jul-25 08:00N 08°47' W 160°22'1 1.3 29.2
2015-Jul-25 07:00N 08°48' W 160°21'0 0.0 29.2
2015-Jul-25 06:00N 08°48' W 160°21'1 0.6 29.2
2015-Jul-25 04:00N 08°49' W 160°21'0 0.1 29.3
2015-Jul-25 03:00N 08°49' W 160°21'2 0.8 29.3
2015-Jul-25 00:00N 08°51' W 160°20'3 0.3 29.4
2015-Jul-24 16:00N 08°54' W 160°20'   29.2
Track history (hours):
 
Tides and Currents Weather Stations Pressure Air Temp Water Temp Dewpoint Dewpoint Depression Visibility Wind Speed Wind Dir Waves Ship Positions

Drifting buoy 51627

Last reported at 2015-Aug-03 16:00 UTC. Time now 2015-Aug-03 17:10 UTC.
Position N 08°42' W 160°04'.

Water temperature 29.2 ° C

Date/timePositionNaut miles runAvg speedWind from/ knotsBaromVisibWave heightAir tempDewpointWater temp
2015-Aug-03 16:00N 08°42' W 160°04'0 0.3 29.2
2015-Aug-03 15:00N 08°42' W 160°04'1 0.6 29.2
2015-Aug-03 14:00N 08°43' W 160°04'0 0.0 29.2
2015-Aug-03 12:00N 08°43' W 160°04'1 0.2 29.2
2015-Aug-03 09:00N 08°43' W 160°04'0 0.3 29.3
2015-Aug-03 08:00N 08°42' W 160°05'1 1.0 29.4
2015-Aug-03 07:00N 08°43' W 160°04'0 0.0 29.4
2015-Aug-03 06:00N 08°43' W 160°04'0 0.0 29.5
2015-Aug-03 05:00N 08°43' W 160°04'2 1.7 29.6
2015-Aug-03 04:00N 08°45' W 160°04'3 0.8 29.6
2015-Aug-03 00:00N 08°48' W 160°05'2 1.8 29.7
2015-Aug-02 23:00N 08°47' W 160°04'3 1.3 29.6
2015-Aug-02 21:00N 08°48' W 160°06'0 0.4 29.5
2015-Aug-02 20:00N 08°48' W 160°06'1 0.2 29.3
2015-Aug-02 17:00N 08°48' W 160°07'0 0.3 29.2
2015-Aug-02 16:00N 08°48' W 160°07'0 0.1 29.2
2015-Aug-02 15:00N 08°48' W 160°07'1 1.0 29.2
2015-Aug-02 14:00N 08°49' W 160°08'0 0.4 29.2
2015-Aug-02 13:00N 08°49' W 160°08'3 0.5 29.3
2015-Aug-02 08:00N 08°50' W 160°11'1 1.0 29.3
2015-Aug-02 07:00N 08°50' W 160°12'0 0.0 29.4
2015-Aug-02 06:00N 08°50' W 160°12'1 0.6 29.4
2015-Aug-02 05:00N 08°50' W 160°11'1 0.5 29.4
2015-Aug-02 04:00N 08°50' W 160°11'0 0.4 29.5
2015-Aug-02 03:00N 08°51' W 160°11'1 1.0 29.6
2015-Aug-02 02:00N 08°52' W 160°11'0 0.0 29.6
2015-Aug-02 01:00N 08°52' W 160°11'2 1.8 29.9
2015-Aug-02 00:00N 08°53' W 160°12'0 0.0 29.8
2015-Aug-01 23:00N 08°53' W 160°12'0 0.1 29.6
2015-Aug-01 20:00N 08°52' W 160°13'0 0.2 29.3
2015-Aug-01 19:00N 08°52' W 160°13'2 0.9 29.2
2015-Aug-01 17:00N 08°52' W 160°15'0 0.2 29.2
2015-Aug-01 15:00N 08°52' W 160°14'1 0.3 29.2
2015-Aug-01 13:00N 08°52' W 160°15'0 0.0 29.2
2015-Aug-01 12:00N 08°52' W 160°15'2 0.4 29.2
2015-Aug-01 08:00N 08°52' W 160°17'1 0.5 29.0
2015-Aug-01 06:00N 08°52' W 160°18'3 0.2 29.4
2015-Jul-31 16:00N 08°54' W 160°20'1 0.1 29.1
2015-Jul-31 08:00N 08°54' W 160°21'0 0.2 29.2
2015-Jul-31 07:00N 08°53' W 160°21'0 0.1 29.2
2015-Jul-31 05:00N 08°54' W 160°21'1 0.4 29.2
2015-Jul-31 03:00N 08°54' W 160°21'0 0.0 29.3
2015-Jul-30 20:00N 08°54' W 160°22'1 0.2 29.1
2015-Jul-30 16:00N 08°55' W 160°22'1 0.9 29.1
2015-Jul-30 15:00N 08°55' W 160°23'0 0.0 29.1
2015-Jul-30 14:00N 08°55' W 160°23'1 0.3 29.1
2015-Jul-30 11:00N 08°54' W 160°24'2 0.8 29.2
2015-Jul-30 09:00N 08°53' W 160°24'1 0.6 29.2
2015-Jul-30 08:00N 08°52' W 160°24'1 0.2 29.3
2015-Jul-30 04:00N 08°51' W 160°24'0 0.2 29.4
2015-Jul-30 01:00N 08°51' W 160°24'1 0.1 29.4
2015-Jul-29 17:00N 08°50' W 160°25'0 0.0 29.2
2015-Jul-29 12:00N 08°51' W 160°25'0 0.0 28.8
2015-Jul-29 11:00N 08°51' W 160°25'1 0.2 29.1
2015-Jul-29 07:00N 08°50' W 160°25'0 0.4 29.3
2015-Jul-29 06:00N 08°50' W 160°24'0 0.3 29.4
2015-Jul-29 05:00N 08°50' W 160°24'1 0.3 29.4
2015-Jul-29 03:00N 08°50' W 160°24'1 1.0 29.5
2015-Jul-29 02:00N 08°51' W 160°24'2 2.3 29.6
2015-Jul-29 01:00N 08°53' W 160°24'3 0.3 29.5
2015-Jul-28 15:00N 08°56' W 160°25'0 0.5 29.1
2015-Jul-28 14:00N 08°56' W 160°26'1 0.5 29.1
2015-Jul-28 13:00N 08°56' W 160°26'2 0.4 29.1
2015-Jul-28 09:00N 08°57' W 160°28'0 0.4 29.2
2015-Jul-28 08:00N 08°57' W 160°28'2 1.9 29.2
2015-Jul-28 07:00N 08°56' W 160°30'1 0.1 29.3
2015-Jul-27 21:00N 08°56' W 160°31'1 0.1 29.1
2015-Jul-27 15:00N 08°55' W 160°31'0 0.2 29.0
2015-Jul-27 14:00N 08°55' W 160°31'3 0.3 29.0
2015-Jul-27 04:00N 08°53' W 160°31'1 0.2 29.1
2015-Jul-26 23:00N 08°52' W 160°30'0 0.0 29.1
2015-Jul-26 21:00N 08°52' W 160°30'1 0.1 29.1
2015-Jul-26 16:00N 08°53' W 160°29'0 0.0 29.1
2015-Jul-26 15:00N 08°53' W 160°29'0 0.1 29.1
2015-Jul-26 12:00N 08°52' W 160°29'0 0.0 29.1
2015-Jul-26 11:00N 08°52' W 160°29'3 0.7 29.1
2015-Jul-26 07:00N 08°50' W 160°29'1 0.4 29.2
2015-Jul-26 05:00N 08°49' W 160°28'1 0.9 29.2
2015-Jul-26 04:00N 08°48' W 160°28'0 0.0 29.2
2015-Jul-26 03:00N 08°48' W 160°28'1 0.7 29.3
2015-Jul-26 02:00N 08°48' W 160°28'1 0.5 29.3
2015-Jul-26 01:00N 08°48' W 160°27'0 0.0 29.3
2015-Jul-26 00:00N 08°48' W 160°27'2 1.6 29.2
2015-Jul-25 23:00N 08°47' W 160°26'0 0.1 29.2
2015-Jul-25 20:00N 08°47' W 160°26'4 0.4 29.1
2015-Jul-25 09:00N 08°47' W 160°22'1 0.9 29.2
2015-Jul-25 08:00N 08°47' W 160°22'1 1.3 29.2
2015-Jul-25 07:00N 08°48' W 160°21'0 0.0 29.2
2015-Jul-25 06:00N 08°48' W 160°21'1 0.6 29.2
2015-Jul-25 04:00N 08°49' W 160°21'0 0.1 29.3
2015-Jul-25 03:00N 08°49' W 160°21'2 0.8 29.3
2015-Jul-25 00:00N 08°51' W 160°20'3 0.3 29.4
2015-Jul-24 16:00N 08°54' W 160°20'   29.2

Dump ship's entire track history